Time;durP1;ratioP1;P1;durP2;ratioP2;P2;SDS_P1;SDS_P2;PMS_P1;PMS_P2;Temp;Humidity;BMP_temperature;BMP_pressure;BME280_temperature;BME280_humidity;BME280_pressure;Samples;Min_cycle;Max_cycle;Signal;HPM_P1;HPM_P2
2021/06/01 00:00:20;;;;;;;7.47;2.13;;;;;;;;;;5054569;28;20449;-58
2021/06/01 00:02:47;;;;;;;5.60;2.80;;;;;;;;;;5056685;28;20454;-58
2021/06/01 00:05:14;;;;;;;3.73;2.13;;;;;;;;;;5058407;28;20449;-53
2021/06/01 00:07:41;;;;;;;8.93;2.20;;;;;;;;;;5058678;28;20488;-58
2021/06/01 00:10:10;;;;;;;5.73;2.40;;;;;;;;;;5058534;28;20468;-54
2021/06/01 00:12:37;;;;;;;4.83;2.03;;;;;;;;;;5058991;28;20490;-58
2021/06/01 00:15:04;;;;;;;4.53;2.47;;;;;;;;;;5058792;28;20441;-54
2021/06/01 00:17:38;;;;;;;5.53;2.63;;;;;;;;;;5058797;28;20441;-55
2021/06/01 00:20:05;;;;;;;3.57;2.07;;;;;;;;;;5058873;28;20449;-55
2021/06/01 00:22:34;;;;;;;4.60;2.20;;;;;;;;;;5058407;28;20541;-55
2021/06/01 00:25:14;;;;;;;3.63;2.07;;;;;;;;;;5058326;28;20460;-55
2021/06/01 00:27:41;;;;;;;5.33;2.20;;;;;;;;;;5057120;28;20500;-58
2021/06/01 00:30:10;;;;;;;6.70;2.23;;;;;;;;;;5058120;28;20422;-52
2021/06/01 00:32:41;;;;;;;8.83;2.30;;;;;;;;;;5058317;28;20438;-53
2021/06/01 00:35:08;;;;;;;3.57;1.93;;;;;;;;;;5058253;28;20458;-53
2021/06/01 00:37:35;;;;;;;3.33;2.30;;;;;;;;;;5057570;28;20491;-53
2021/06/01 00:40:11;;;;;;;3.83;1.93;;;;;;;;;;5057886;28;20458;-58
2021/06/01 00:42:39;;;;;;;5.00;2.57;;;;;;;;;;5057957;28;20480;-59
2021/06/01 00:45:07;;;;;;;4.17;2.20;;;;;;;;;;5058321;28;20449;-56
2021/06/01 00:47:41;;;;;;;4.40;2.47;;;;;;;;;;5057693;28;20754;-58
2021/06/01 00:50:08;;;;;;;4.97;2.47;;;;;;;;;;5057247;28;20462;-56
2021/06/01 00:52:35;;;;;;;4.60;1.80;;;;;;;;;;5058328;28;20462;-56
2021/06/01 00:55:03;;;;;;;4.37;2.37;;;;;;;;;;5058117;28;20486;-61
2021/06/01 00:57:31;;;;;;;4.20;2.10;;;;;;;;;;5058465;28;20446;-57
2021/06/01 01:00:29;;;;;;;3.60;2.63;;;;;;;;;;5058012;28;20710;-53
2021/06/01 01:02:56;;;;;;;10.37;2.50;;;;;;;;;;5058057;28;20472;-56
2021/06/01 01:05:35;;;;;;;6.53;2.30;;;;;;;;;;5056888;28;20466;-55
2021/06/01 01:08:05;;;;;;;3.70;2.20;;;;;;;;;;5057869;28;20492;-59
2021/06/01 01:10:36;;;;;;;6.03;2.23;;;;;;;;;;5057444;28;20489;-51
2021/06/01 01:13:05;;;;;;;3.13;2.00;;;;;;;;;;5057416;28;20494;-57
2021/06/01 01:15:34;;;;;;;4.30;2.57;;;;;;;;;;5057507;28;20454;-60
2021/06/01 01:18:13;;;;;;;4.53;1.93;;;;;;;;;;5057436;28;20425;-57
2021/06/01 01:20:44;;;;;;;6.50;2.13;;;;;;;;;;5057312;28;20448;-57
2021/06/01 01:23:13;;;;;;;5.73;2.40;;;;;;;;;;5057437;28;20482;-59
2021/06/01 01:25:44;;;;;;;5.97;4.57;;;;;;;;;;5057200;28;20462;-60
2021/06/01 01:28:20;;;;;;;12.23;8.50;;;;;;;;;;5057060;28;20493;-61
2021/06/01 01:30:58;;;;;;;32.97;25.13;;;;;;;;;;5057077;28;20471;-60
2021/06/01 01:33:28;;;;;;;10.20;7.33;;;;;;;;;;5056924;28;20442;-59
2021/06/01 01:35:57;;;;;;;18.93;15.80;;;;;;;;;;5057265;28;20468;-60
2021/06/01 01:38:27;;;;;;;28.20;20.40;;;;;;;;;;5057062;28;20513;-55
2021/06/01 01:40:54;;;;;;;21.03;17.57;;;;;;;;;;5056968;28;20489;-58
2021/06/01 01:43:24;;;;;;;20.23;14.40;;;;;;;;;;5057066;28;20458;-54
2021/06/01 01:46:05;;;;;;;8.67;6.27;;;;;;;;;;5056817;28;20476;-58
2021/06/01 01:51:19;;;;;;;15.30;11.10;;;;;;;;;;5057787;28;20418;-55
2021/06/01 01:53:50;;;;;;;14.43;12.30;;;;;;;;;;5057396;28;20442;-54
2021/06/01 01:56:18;;;;;;;19.20;14.60;;;;;;;;;;5057183;28;20485;-52
2021/06/01 01:58:46;;;;;;;44.10;34.53;;;;;;;;;;5057385;28;20478;-54
2021/06/01 02:01:14;;;;;;;8.80;6.47;;;;;;;;;;5057148;28;20469;-59
2021/06/01 02:03:43;;;;;;;8.20;4.10;;;;;;;;;;5057081;28;20496;-61
2021/06/01 02:06:09;;;;;;;7.63;3.83;;;;;;;;;;5057616;28;20458;-57
2021/06/01 02:08:40;;;;;;;6.13;3.60;;;;;;;;;;5057189;28;20534;-56
2021/06/01 02:11:28;;;;;;;8.07;3.47;;;;;;;;;;5056881;28;20482;-52
2021/06/01 02:13:58;;;;;;;16.00;12.23;;;;;;;;;;5017529;28;20447;-57
2021/06/01 02:16:26;;;;;;;21.33;17.47;;;;;;;;;;5017752;28;20472;-56
2021/06/01 02:19:12;;;;;;;29.90;22.83;;;;;;;;;;5017463;28;20452;-59
2021/06/01 02:21:59;;;;;;;27.10;20.27;;;;;;;;;;5039704;28;20552;-59
2021/06/01 02:24:28;;;;;;;26.70;18.53;;;;;;;;;;5057030;28;20475;-57
2021/06/01 02:26:58;;;;;;;15.90;10.90;;;;;;;;;;5055798;28;20470;-59
2021/06/01 02:29:26;;;;;;;22.77;13.50;;;;;;;;;;5056280;28;20538;-62
2021/06/01 02:31:55;;;;;;;44.83;33.47;;;;;;;;;;5056476;28;20446;-60
2021/06/01 02:34:24;;;;;;;10.50;6.70;;;;;;;;;;5055826;28;20469;-54
2021/06/01 02:36:52;;;;;;;20.10;14.60;;;;;;;;;;5056162;28;20505;-57
2021/06/01 02:39:21;;;;;;;23.70;18.43;;;;;;;;;;5055834;28;20466;-56
2021/06/01 02:41:49;;;;;;;21.53;16.00;;;;;;;;;;5053580;28;20489;-58
2021/06/01 02:44:17;;;;;;;18.60;14.60;;;;;;;;;;5056004;28;20458;-55
2021/06/01 02:46:44;;;;;;;23.63;18.43;;;;;;;;;;5055913;28;20496;-60
2021/06/01 02:49:11;;;;;;;18.93;15.20;;;;;;;;;;5056008;28;20511;-57
2021/06/01 02:51:47;;;;;;;16.97;13.37;;;;;;;;;;5055614;28;20422;-54
2021/06/01 02:54:15;;;;;;;19.63;15.30;;;;;;;;;;5056193;28;20466;-57
2021/06/01 02:56:43;;;;;;;18.83;16.00;;;;;;;;;;5055565;28;20461;-58
2021/06/01 02:59:19;;;;;;;19.97;14.50;;;;;;;;;;5056249;28;20469;-54
2021/06/01 03:01:49;;;;;;;21.40;15.60;;;;;;;;;;5054133;28;20512;-58
2021/06/01 03:04:19;;;;;;;18.63;16.33;;;;;;;;;;5055901;28;20469;-57
2021/06/01 03:06:48;;;;;;;34.67;22.70;;;;;;;;;;5056269;28;20561;-55
2021/06/01 03:09:15;;;;;;;28.40;22.97;;;;;;;;;;5055980;28;20457;-53
2021/06/01 03:12:02;;;;;;;23.00;16.60;;;;;;;;;;5055796;28;20422;-57
2021/06/01 03:14:29;;;;;;;20.23;13.03;;;;;;;;;;5056333;28;20563;-57
2021/06/01 03:16:56;;;;;;;16.60;12.80;;;;;;;;;;5055829;28;20959;-53
2021/06/01 03:19:25;;;;;;;13.57;9.20;;;;;;;;;;5055660;28;20552;-50
2021/06/01 03:21:54;;;;;;;7.23;5.40;;;;;;;;;;5053714;28;20564;-57
2021/06/01 03:24:21;;;;;;;15.33;9.70;;;;;;;;;;5042462;28;20522;-55
2021/06/01 03:26:48;;;;;;;29.40;17.30;;;;;;;;;;5045691;28;20477;-58
2021/06/01 03:29:15;;;;;;;22.30;12.87;;;;;;;;;;5055139;28;20524;-58
2021/06/01 03:31:41;;;;;;;21.17;16.10;;;;;;;;;;5055468;28;20446;-52
2021/06/01 03:34:08;;;;;;;19.77;14.30;;;;;;;;;;5055217;28;20468;-53
2021/06/01 03:36:35;;;;;;;18.00;13.57;;;;;;;;;;5036399;28;20442;-58
2021/06/01 03:39:07;;;;;;;15.50;10.00;;;;;;;;;;5039849;28;20546;-59
2021/06/01 03:41:34;;;;;;;13.07;7.17;;;;;;;;;;5039993;28;20493;-56
2021/06/01 03:44:02;;;;;;;18.70;12.77;;;;;;;;;;5039556;28;20481;-61
2021/06/01 03:46:32;;;;;;;13.90;10.40;;;;;;;;;;5050698;28;20621;-54
2021/06/01 03:48:59;;;;;;;16.80;9.40;;;;;;;;;;5052380;28;20526;-54
2021/06/01 03:51:26;;;;;;;16.60;11.00;;;;;;;;;;5039695;28;20454;-60
2021/06/01 03:53:53;;;;;;;13.63;9.37;;;;;;;;;;5039072;28;20454;-57
2021/06/01 03:56:21;;;;;;;13.87;10.00;;;;;;;;;;5039314;28;20431;-60
2021/06/01 03:58:55;;;;;;;20.30;12.10;;;;;;;;;;5039774;28;20423;-58
2021/06/01 04:01:22;;;;;;;13.60;5.67;;;;;;;;;;5038944;28;20471;-57
2021/06/01 04:03:49;;;;;;;13.33;8.03;;;;;;;;;;5038522;28;20459;-60
2021/06/01 04:06:16;;;;;;;9.73;6.63;;;;;;;;;;5039489;28;20469;-53
2021/06/01 04:08:42;;;;;;;10.30;6.83;;;;;;;;;;5050606;28;20473;-59
2021/06/01 04:11:10;;;;;;;11.17;8.00;;;;;;;;;;5057085;28;20640;-61
2021/06/01 04:13:55;;;;;;;11.10;8.13;;;;;;;;;;5038997;28;20478;-54
2021/06/01 04:16:22;;;;;;;17.53;8.87;;;;;;;;;;5042437;28;20486;-59
2021/06/01 04:18:49;;;;;;;8.27;5.43;;;;;;;;;;5042788;28;20458;-58
2021/06/01 04:21:20;;;;;;;12.67;10.20;;;;;;;;;;5038611;28;20508;-59
2021/06/01 04:23:46;;;;;;;16.90;10.60;;;;;;;;;;5038933;28;20462;-56
2021/06/01 04:26:13;;;;;;;14.10;9.87;;;;;;;;;;5037670;28;20474;-59
2021/06/01 04:28:43;;;;;;;13.10;9.17;;;;;;;;;;5037782;28;20542;-60
2021/06/01 04:31:11;;;;;;;14.40;9.20;;;;;;;;;;5038494;28;20513;-55
2021/06/01 04:33:37;;;;;;;9.77;8.20;;;;;;;;;;5037768;28;20530;-62
2021/06/01 04:36:05;;;;;;;14.70;11.40;;;;;;;;;;5037411;28;20450;-58
2021/06/01 04:38:32;;;;;;;10.57;8.23;;;;;;;;;;5037709;28;20442;-56
2021/06/01 04:41:15;;;;;;;11.10;7.80;;;;;;;;;;5037495;28;20431;-62
2021/06/01 04:43:43;;;;;;;9.27;6.37;;;;;;;;;;5037705;28;20463;-54
2021/06/01 04:46:10;;;;;;;7.10;4.83;;;;;;;;;;5037920;28;20655;-54
2021/06/01 04:48:41;;;;;;;8.83;4.90;;;;;;;;;;5036770;28;20533;-55
2021/06/01 04:51:17;;;;;;;10.13;6.20;;;;;;;;;;5037761;28;20447;-55
2021/06/01 04:54:03;;;;;;;12.73;10.47;;;;;;;;;;5044944;28;20556;-56
2021/06/01 04:56:30;;;;;;;9.90;5.73;;;;;;;;;;5038690;28;20443;-60
2021/06/01 04:59:00;;;;;;;7.03;5.23;;;;;;;;;;5044120;28;20442;-61
2021/06/01 05:01:57;;;;;;;9.87;6.03;;;;;;;;;;5058046;28;20485;-56
2021/06/01 05:04:25;;;;;;;8.53;5.47;;;;;;;;;;5054496;28;20457;-60
2021/06/01 05:06:56;;;;;;;7.07;4.83;;;;;;;;;;5056911;28;20462;-54
2021/06/01 05:09:26;;;;;;;8.57;5.60;;;;;;;;;;5057214;28;20514;-58
2021/06/01 05:11:53;;;;;;;10.33;6.00;;;;;;;;;;5056951;28;20441;-53
2021/06/01 05:14:21;;;;;;;9.40;4.80;;;;;;;;;;5053707;28;20463;-56
2021/06/01 05:16:48;;;;;;;10.73;5.37;;;;;;;;;;5037387;28;20439;-59
2021/06/01 05:19:17;;;;;;;9.30;3.80;;;;;;;;;;5043271;28;20490;-62
2021/06/01 05:21:45;;;;;;;8.10;4.10;;;;;;;;;;5037361;28;20478;-57
2021/06/01 05:24:29;;;;;;;13.17;4.20;;;;;;;;;;5038413;28;20459;-58
2021/06/01 05:27:01;;;;;;;10.17;5.10;;;;;;;;;;5056272;28;20466;-50
2021/06/01 05:29:30;;;;;;;9.90;5.43;;;;;;;;;;5045268;28;20482;-54
2021/06/01 05:32:52;;;;;;;6.33;4.10;;;;;;;;;;5047874;28;20454;-58
2021/06/01 05:35:25;;;;;;;7.67;3.60;;;;;;;;;;5041976;28;20504;-55
2021/06/01 05:38:04;;;;;;;8.40;4.30;;;;;;;;;;5054253;28;20558;-55
2021/06/01 05:40:32;;;;;;;6.77;3.07;;;;;;;;;;5054513;28;20468;-55
2021/06/01 05:42:59;;;;;;;5.20;3.67;;;;;;;;;;5048361;28;20440;-61
2021/06/01 05:45:42;;;;;;;8.17;4.40;;;;;;;;;;5043490;28;20462;-55
2021/06/01 05:48:09;;;;;;;7.47;3.20;;;;;;;;;;5054766;28;20466;-54
2021/06/01 05:50:37;;;;;;;6.00;3.87;;;;;;;;;;5048877;28;20455;-59
2021/06/01 05:53:05;;;;;;;7.17;2.93;;;;;;;;;;5034985;28;20451;-57
2021/06/01 05:55:43;;;;;;;8.50;2.73;;;;;;;;;;5035203;28;20462;-61
2021/06/01 05:58:24;;;;;;;6.23;2.87;;;;;;;;;;5033883;28;20466;-54
2021/06/01 06:00:53;;;;;;;20.23;8.30;;;;;;;;;;5034915;28;20527;-56
2021/06/01 06:03:40;;;;;;;6.00;3.40;;;;;;;;;;5046273;28;20474;-54
2021/06/01 06:06:11;;;;;;;6.67;3.73;;;;;;;;;;5054271;28;20477;-59
2021/06/01 06:08:38;;;;;;;11.00;3.00;;;;;;;;;;5034454;28;20486;-58
2021/06/01 06:11:11;;;;;;;13.80;4.23;;;;;;;;;;5033724;28;20478;-54
2021/06/01 06:13:38;;;;;;;5.40;3.00;;;;;;;;;;5033628;28;20514;-54
2021/06/01 06:16:06;;;;;;;7.07;4.00;;;;;;;;;;5034506;28;20459;-59
2021/06/01 06:18:43;;;;;;;5.20;3.13;;;;;;;;;;5033572;28;20499;-53
2021/06/01 06:21:31;;;;;;;4.23;2.27;;;;;;;;;;5033828;28;20542;-54
2021/06/01 06:23:58;;;;;;;5.67;3.00;;;;;;;;;;5034080;28;20518;-61
2021/06/01 06:26:25;;;;;;;7.07;2.80;;;;;;;;;;5035625;28;20458;-56
2021/06/01 06:28:52;;;;;;;4.73;2.60;;;;;;;;;;5039624;28;20490;-56
2021/06/01 06:31:40;;;;;;;4.93;2.67;;;;;;;;;;5033333;28;20431;-54
2021/06/01 06:34:06;;;;;;;6.00;3.07;;;;;;;;;;5052514;28;20454;-58
2021/06/01 06:36:59;;;;;;;5.60;2.90;;;;;;;;;;5050644;28;20482;-55
2021/06/01 06:39:28;;;;;;;3.27;2.03;;;;;;;;;;5048921;28;20470;-54
2021/06/01 06:41:55;;;;;;;5.40;2.60;;;;;;;;;;5051069;28;20484;-60
2021/06/01 06:44:27;;;;;;;10.87;3.27;;;;;;;;;;5044631;28;20458;-60
2021/06/01 06:47:06;;;;;;;5.63;3.10;;;;;;;;;;5036836;28;20450;-54
2021/06/01 06:49:34;;;;;;;5.73;3.23;;;;;;;;;;5053003;28;20512;-57
2021/06/01 06:52:01;;;;;;;6.70;2.77;;;;;;;;;;5033340;28;20454;-60
2021/06/01 06:54:33;;;;;;;4.33;2.77;;;;;;;;;;5036822;28;20423;-60
2021/06/01 06:57:02;;;;;;;4.33;3.23;;;;;;;;;;5051192;28;20447;-59
2021/06/01 06:59:29;;;;;;;5.73;3.40;;;;;;;;;;5052077;28;20465;-57
2021/06/01 07:01:57;;;;;;;6.00;2.67;;;;;;;;;;5042170;28;20466;-59
2021/06/01 07:04:25;;;;;;;5.90;3.20;;;;;;;;;;5041488;28;20449;-58
2021/06/01 07:06:56;;;;;;;4.63;2.50;;;;;;;;;;5045781;28;20509;-56
2021/06/01 07:09:23;;;;;;;5.13;2.67;;;;;;;;;;5046777;28;20456;-57
2021/06/01 07:11:50;;;;;;;5.67;3.30;;;;;;;;;;5034193;28;20451;-56
2021/06/01 07:14:38;;;;;;;4.80;2.50;;;;;;;;;;5031252;28;20534;-57
2021/06/01 07:17:07;;;;;;;7.10;2.80;;;;;;;;;;5044980;28;20515;-58
2021/06/01 07:19:34;;;;;;;4.43;2.40;;;;;;;;;;5050922;28;20512;-59
2021/06/01 07:22:01;;;;;;;3.60;2.50;;;;;;;;;;5048919;28;20450;-62
2021/06/01 07:24:30;;;;;;;6.37;2.67;;;;;;;;;;5048628;28;20462;-63
2021/06/01 07:27:01;;;;;;;4.20;2.43;;;;;;;;;;5051160;28;20446;-60
2021/06/01 07:29:28;;;;;;;5.23;2.60;;;;;;;;;;5039901;28;20458;-62
2021/06/01 07:31:59;;;;;;;4.00;2.57;;;;;;;;;;5035500;28;20858;-53
2021/06/01 07:34:27;;;;;;;5.13;3.10;;;;;;;;;;5040353;28;20512;-57
2021/06/01 07:36:55;;;;;;;5.77;2.37;;;;;;;;;;5046320;28;20469;-59
2021/06/01 07:39:23;;;;;;;5.50;2.50;;;;;;;;;;5036541;28;20458;-60
2021/06/01 07:42:02;;;;;;;4.00;2.80;;;;;;;;;;5034454;28;20800;-60
2021/06/01 07:44:31;;;;;;;7.33;2.20;;;;;;;;;;5050521;28;20509;-60
2021/06/01 07:46:58;;;;;;;5.43;2.90;;;;;;;;;;5034320;28;20442;-56
2021/06/01 07:49:25;;;;;;;4.43;2.30;;;;;;;;;;5032986;28;20443;-57
2021/06/01 07:51:53;;;;;;;5.43;2.80;;;;;;;;;;5032775;28;20450;-57
2021/06/01 07:54:27;;;;;;;3.97;2.53;;;;;;;;;;5031906;28;20525;-59
2021/06/01 07:56:54;;;;;;;4.60;2.30;;;;;;;;;;5045719;28;20581;-61
2021/06/01 07:59:27;;;;;;;4.97;2.50;;;;;;;;;;5053940;28;20438;-61
2021/06/01 08:01:54;;;;;;;3.33;2.13;;;;;;;;;;5038867;28;20638;-55
2021/06/01 08:04:21;;;;;;;3.93;2.20;;;;;;;;;;5033034;28;20454;-53
2021/06/01 08:06:49;;;;;;;6.03;2.87;;;;;;;;;;5033098;28;20454;-56
2021/06/01 08:09:17;;;;;;;4.30;2.07;;;;;;;;;;5037470;28;20482;-55
2021/06/01 08:11:56;;;;;;;5.00;2.37;;;;;;;;;;5052571;28;20466;-56
2021/06/01 08:14:23;;;;;;;4.07;2.40;;;;;;;;;;5033342;28;20517;-55
2021/06/01 08:16:50;;;;;;;6.53;2.33;;;;;;;;;;5042900;28;20440;-57
2021/06/01 08:22:33;;;;;;;9.23;2.27;;;;;;;;;;5050096;28;20446;-57
2021/06/01 08:25:46;;;;;;;4.60;2.13;;;;;;;;;;5044707;28;20473;-57
2021/06/01 08:28:18;;;;;;;4.50;2.20;;;;;;;;;;5050114;28;20633;-59
2021/06/01 08:30:58;;;;;;;3.90;2.10;;;;;;;;;;5036940;28;20506;-58
2021/06/01 08:33:31;;;;;;;7.20;2.67;;;;;;;;;;5035411;28;20528;-51
2021/06/01 08:36:05;;;;;;;4.53;2.23;;;;;;;;;;5035552;28;20590;-60
2021/06/01 08:38:35;;;;;;;3.40;2.00;;;;;;;;;;5043246;28;20473;-62
2021/06/01 08:41:13;;;;;;;7.50;2.17;;;;;;;;;;5053277;28;20450;-62
2021/06/01 08:43:40;;;;;;;4.47;2.40;;;;;;;;;;5055294;28;20489;-60
2021/06/01 08:46:10;;;;;;;11.63;2.20;;;;;;;;;;5054055;28;20426;-60
2021/06/01 08:49:07;;;;;;;3.83;2.30;;;;;;;;;;5054453;28;20493;-55
2021/06/01 08:51:35;;;;;;;4.10;2.40;;;;;;;;;;5054351;28;20470;-57
2021/06/01 08:54:03;;;;;;;4.50;2.63;;;;;;;;;;5054900;28;20453;-56
2021/06/01 08:56:31;;;;;;;8.10;3.50;;;;;;;;;;5044604;28;20525;-57
2021/06/01 08:58:58;;;;;;;4.40;2.40;;;;;;;;;;5034651;28;20454;-61
2021/06/01 09:01:29;;;;;;;5.27;2.43;;;;;;;;;;5034252;28;20446;-56
2021/06/01 09:04:05;;;;;;;5.20;2.27;;;;;;;;;;5034011;28;20465;-59
2021/06/01 09:06:41;;;;;;;5.50;2.60;;;;;;;;;;5034525;28;20502;-59
2021/06/01 09:09:22;;;;;;;2.70;1.90;;;;;;;;;;5033643;28;20474;-60
2021/06/01 09:12:01;;;;;;;3.83;2.60;;;;;;;;;;5034149;28;20458;-59
2021/06/01 09:23:11;;;;;;;16.27;14.70;;;;;;;;;;5042621;28;20441;-61
2021/06/01 09:25:41;;;;;;;12.23;7.60;;;;;;;;;;5033249;28;20454;-56
2021/06/01 09:28:11;;;;;;;9.00;8.20;;;;;;;;;;5042463;28;20963;-55
2021/06/01 09:30:39;;;;;;;4.30;2.37;;;;;;;;;;5038500;28;20443;-56
2021/06/01 09:33:07;;;;;;;3.50;2.20;;;;;;;;;;5034649;28;20462;-60
2021/06/01 09:35:41;;;;;;;2.80;1.80;;;;;;;;;;5046221;28;20458;-60
2021/06/01 09:38:08;;;;;;;3.60;2.13;;;;;;;;;;5054444;28;20457;-62
2021/06/01 09:40:35;;;;;;;3.97;1.73;;;;;;;;;;5053292;28;20462;-59
2021/06/01 09:43:07;;;;;;;3.40;1.77;;;;;;;;;;5052282;28;20425;-57
2021/06/01 09:45:35;;;;;;;4.23;2.47;;;;;;;;;;5051956;28;20486;-61
2021/06/01 09:48:04;;;;;;;5.27;2.27;;;;;;;;;;5052320;28;20532;-60
2021/06/01 09:50:40;;;;;;;4.70;2.23;;;;;;;;;;5052465;28;20493;-56
2021/06/01 09:53:08;;;;;;;4.27;1.87;;;;;;;;;;5044068;28;20489;-59
2021/06/01 09:55:40;;;;;;;2.90;1.73;;;;;;;;;;5033611;28;20458;-59
2021/06/01 09:58:09;;;;;;;2.83;1.90;;;;;;;;;;5039232;28;20463;-56
2021/06/01 10:00:41;;;;;;;3.73;2.10;;;;;;;;;;5050361;28;20447;-61
2021/06/01 10:03:13;;;;;;;6.33;2.43;;;;;;;;;;5048216;28;20447;-55
2021/06/01 10:05:40;;;;;;;4.40;1.80;;;;;;;;;;5038890;28;21255;-59
2021/06/01 10:08:12;;;;;;;2.70;1.83;;;;;;;;;;5033325;28;20478;-62
2021/06/01 10:10:50;;;;;;;5.13;2.07;;;;;;;;;;5046918;28;20466;-61
2021/06/01 10:13:17;;;;;;;5.37;2.20;;;;;;;;;;5052339;28;20488;-56
2021/06/01 10:15:46;;;;;;;3.10;2.10;;;;;;;;;;5051147;28;20453;-61
2021/06/01 10:18:17;;;;;;;4.13;2.53;;;;;;;;;;5053199;28;20513;-57
2021/06/01 10:20:45;;;;;;;3.97;2.40;;;;;;;;;;5045821;28;20490;-62
2021/06/01 10:23:21;;;;;;;7.43;5.20;;;;;;;;;;5033627;28;20462;-59
2021/06/01 10:25:49;;;;;;;4.20;1.70;;;;;;;;;;5051144;28;20472;-58
2021/06/01 10:28:25;;;;;;;6.00;2.33;;;;;;;;;;5035784;28;20522;-54
2021/06/01 10:31:02;;;;;;;4.10;2.80;;;;;;;;;;5050113;28;20436;-62
2021/06/01 10:33:41;;;;;;;3.13;2.00;;;;;;;;;;5053552;28;20488;-55
2021/06/01 10:50:57;;;;;;;6.60;2.10;;;;;;;;;;5040582;28;20476;-58
2021/06/01 10:53:26;;;;;;;6.60;2.70;;;;;;;;;;5033470;28;20451;-60
2021/06/01 10:56:20;;;;;;;3.23;2.00;;;;;;;;;;5043377;28;20478;-53
2021/06/01 10:59:11;;;;;;;4.27;2.40;;;;;;;;;;5050699;28;20612;-60
2021/06/01 11:01:53;;;;;;;4.93;1.80;;;;;;;;;;5033667;28;20475;-59
2021/06/01 11:04:23;;;;;;;4.80;2.70;;;;;;;;;;5043284;28;20411;-57
2021/06/01 11:07:38;;;;;;;6.00;2.57;;;;;;;;;;5051125;28;20494;-58
2021/06/01 11:10:06;;;;;;;6.20;2.63;;;;;;;;;;5053060;28;20438;-60
2021/06/01 11:12:53;;;;;;;3.50;2.20;;;;;;;;;;5045245;28;20545;-60
2021/06/01 11:15:33;;;;;;;3.57;2.40;;;;;;;;;;5025711;28;20454;-56
2021/06/01 11:18:21;;;;;;;3.77;1.97;;;;;;;;;;5033688;28;20450;-59
2021/06/01 11:21:09;;;;;;;9.00;2.90;;;;;;;;;;5034093;28;20427;-56
2021/06/01 11:23:57;;;;;;;5.90;2.80;;;;;;;;;;5033327;28;20569;-57
2021/06/01 11:35:01;;;;;;;6.27;3.00;;;;;;;;;;5053078;28;20506;-62
2021/06/01 11:38:17;;;;;;;3.90;2.30;;;;;;;;;;5041166;28;20529;-53
2021/06/01 11:41:02;;;;;;;3.10;1.87;;;;;;;;;;5033237;28;20991;-55
2021/06/01 11:43:31;;;;;;;3.33;1.60;;;;;;;;;;5051378;28;20899;-56
2021/06/01 11:46:06;;;;;;;5.40;2.50;;;;;;;;;;5044136;28;20469;-55
2021/06/01 11:51:35;;;;;;;9.00;5.80;;;;;;;;;;5040391;28;20438;-60
2021/06/01 11:57:11;;;;;;;3.83;1.93;;;;;;;;;;5052342;28;20432;-56
2021/06/01 12:02:55;;;;;;;6.33;3.53;;;;;;;;;;5051048;28;20405;-56
2021/06/01 12:11:13;;;;;;;3.50;2.37;;;;;;;;;;5035842;28;20450;-59
2021/06/01 12:11:44;;;;;;;4.00;1.80;;;;;;;;;;5001883;28;20472;-62
2021/06/01 12:17:05;;;;;;;3.80;1.67;;;;;;;;;;4997143;28;20529;-58
2021/06/01 12:17:14;;;;;;;4.50;2.57;;;;;;;;;;5009625;28;20456;-58
2021/06/01 12:23:04;;;;;;;5.40;2.60;;;;;;;;;;5006341;28;20444;-58
2021/06/01 12:26:06;;;;;;;4.23;2.03;;;;;;;;;;5004368;28;20465;-58
2021/06/01 12:31:51;;;;;;;4.20;2.30;;;;;;;;;;5013560;28;20411;-58
2021/06/01 12:34:21;;;;;;;4.70;1.97;;;;;;;;;;5007821;28;20452;-57
2021/06/01 13:20:03;;;;;;;6.07;2.40;;;;;;;;;;5050491;28;20445;-53
2021/06/01 13:22:48;;;;;;;5.60;2.40;;;;;;;;;;5036069;28;20490;-59
2021/06/01 13:31:38;;;;;;;4.90;2.50;;;;;;;;;;5042407;28;20483;-60
2021/06/01 13:37:12;;;;;;;4.00;2.77;;;;;;;;;;5056357;28;20472;-59
2021/06/01 13:39:44;;;;;;;4.87;2.77;;;;;;;;;;5055379;28;20619;-57
2021/06/01 13:51:28;;;;;;;4.17;2.70;;;;;;;;;;5053105;28;20441;-52
2021/06/01 13:57:17;;;;;;;13.20;4.40;;;;;;;;;;5054191;28;20453;-55
2021/06/01 14:00:13;;;;;;;3.60;2.70;;;;;;;;;;5056159;28;20445;-63
2021/06/01 14:09:27;;;;;;;5.03;2.13;;;;;;;;;;5054826;28;20464;-53
2021/06/01 14:31:29;;;;;;;3.57;2.50;;;;;;;;;;5046676;28;20735;-54
2021/06/01 14:37:03;;;;;;;10.03;3.20;;;;;;;;;;5042066;28;20477;-56
2021/06/01 14:40:08;;;;;;;2.90;1.90;;;;;;;;;;5040370;28;20539;-56
2021/06/01 15:50:21;;;;;;;4.40;2.10;;;;;;;;;;5056154;28;20428;-55
2021/06/01 15:53:21;;;;;;;4.47;2.37;;;;;;;;;;5043776;28;20436;-60
2021/06/01 16:13:13;;;;;;;6.83;2.90;;;;;;;;;;5046868;28;20440;-60
2021/06/01 16:21:54;;;;;;;6.30;4.33;;;;;;;;;;5056905;28;20437;-62
2021/06/01 16:30:16;;;;;;;10.00;3.73;;;;;;;;;;5044336;28;20464;-59
2021/06/01 16:41:51;;;;;;;5.00;3.37;;;;;;;;;;5046519;28;20444;-57
2021/06/01 16:44:38;;;;;;;5.77;3.53;;;;;;;;;;5049359;28;20462;-57
2021/06/01 17:03:58;;;;;;;7.80;5.47;;;;;;;;;;5039433;28;20442;-50
2021/06/01 17:06:38;;;;;;;27.23;4.20;;;;;;;;;;5046509;28;20487;-56
2021/06/01 17:12:07;;;;;;;4.13;2.60;;;;;;;;;;5010944;28;20431;-52
2021/06/01 17:14:34;;;;;;;26.97;19.43;;;;;;;;;;5042887;28;20456;-52
2021/06/01 17:17:03;;;;;;;4.83;3.30;;;;;;;;;;5049309;28;20466;-59
2021/06/01 17:20:05;;;;;;;5.00;3.50;;;;;;;;;;5053970;28;20462;-58
2021/06/01 17:22:51;;;;;;;6.77;4.00;;;;;;;;;;5044445;28;20489;-54
2021/06/01 17:31:05;;;;;;;4.80;2.80;;;;;;;;;;5048232;28;20498;-54
2021/06/01 17:36:20;;;;;;;4.27;3.03;;;;;;;;;;5045392;28;20445;-58
2021/06/01 17:38:48;;;;;;;4.43;2.90;;;;;;;;;;5054937;28;20450;-59
2021/06/01 17:41:19;;;;;;;8.23;4.60;;;;;;;;;;5052622;28;20500;-56
2021/06/01 17:43:47;;;;;;;3.67;2.33;;;;;;;;;;5040380;28;20497;-54
2021/06/01 17:46:16;;;;;;;6.37;2.47;;;;;;;;;;5041152;28;20466;-52
2021/06/01 17:48:54;;;;;;;4.70;2.27;;;;;;;;;;5047441;28;20496;-59
2021/06/01 17:51:24;;;;;;;6.30;3.90;;;;;;;;;;5045687;28;20477;-57
2021/06/01 17:54:08;;;;;;;6.50;3.37;;;;;;;;;;5044050;28;20530;-58
2021/06/01 17:56:57;;;;;;;5.20;2.40;;;;;;;;;;5053914;28;20540;-55
2021/06/01 17:59:51;;;;;;;5.57;3.37;;;;;;;;;;5052287;28;20482;-59
2021/06/01 18:02:21;;;;;;;3.77;2.87;;;;;;;;;;5039920;28;20466;-57
2021/06/01 18:04:49;;;;;;;5.87;3.73;;;;;;;;;;5038905;28;20450;-54
2021/06/01 18:07:25;;;;;;;4.50;2.03;;;;;;;;;;5052491;28;20485;-58
2021/06/01 18:42:12;;;;;;;12.07;5.53;;;;;;;;;;5034726;28;20446;-62
2021/06/01 19:24:30;;;;;;;4.63;3.23;;;;;;;;;;4973888;28;20447;-59
2021/06/01 19:44:24;;;;;;;7.17;3.87;;;;;;;;;;5052141;28;20489;-59
2021/06/01 19:49:58;;;;;;;5.17;2.73;;;;;;;;;;5052148;28;20750;-57
2021/06/01 19:52:26;;;;;;;9.87;4.00;;;;;;;;;;5052200;28;20439;-59
2021/06/01 19:54:53;;;;;;;12.13;6.17;;;;;;;;;;5052003;28;20438;-59
2021/06/01 19:57:42;;;;;;;5.80;3.60;;;;;;;;;;5053162;28;20486;-52
2021/06/01 20:00:15;;;;;;;13.17;6.17;;;;;;;;;;5039562;28;20494;-59
2021/06/01 20:02:43;;;;;;;6.97;3.80;;;;;;;;;;5033046;28;20470;-52
2021/06/01 20:05:19;;;;;;;12.87;5.53;;;;;;;;;;5033190;28;20463;-54
2021/06/01 20:07:47;;;;;;;14.13;3.40;;;;;;;;;;5033759;28;20832;-56
2021/06/01 20:10:21;;;;;;;15.93;12.13;;;;;;;;;;5032730;28;20499;-58
2021/06/01 20:12:47;;;;;;;4.77;2.90;;;;;;;;;;5032833;28;20522;-60
2021/06/01 20:15:18;;;;;;;6.00;3.53;;;;;;;;;;5033247;28;20451;-59
2021/06/01 20:17:47;;;;;;;9.47;4.73;;;;;;;;;;5033019;28;20497;-61
2021/06/01 20:20:15;;;;;;;9.27;6.73;;;;;;;;;;5034575;28;20474;-59
2021/06/01 20:22:47;;;;;;;6.37;3.73;;;;;;;;;;5035417;28;20471;-56
2021/06/01 20:25:15;;;;;;;6.63;4.13;;;;;;;;;;5035248;28;20462;-59
2021/06/01 20:27:44;;;;;;;4.60;2.90;;;;;;;;;;5043331;28;20434;-57
2021/06/01 20:30:12;;;;;;;5.80;3.40;;;;;;;;;;5055041;28;20885;-54
2021/06/01 20:35:26;;;;;;;11.63;6.80;;;;;;;;;;5056499;28;20624;-56
2021/06/01 20:37:54;;;;;;;9.77;6.77;;;;;;;;;;5053062;28;20469;-57
2021/06/01 20:40:26;;;;;;;4.70;3.47;;;;;;;;;;5043389;28;20506;-50
2021/06/01 20:42:55;;;;;;;5.27;3.50;;;;;;;;;;5037625;28;20443;-52
2021/06/01 20:45:26;;;;;;;6.90;4.07;;;;;;;;;;5036898;28;20481;-56
2021/06/01 20:47:57;;;;;;;8.03;3.73;;;;;;;;;;5036273;28;20470;-51
2021/06/01 20:50:24;;;;;;;6.60;3.70;;;;;;;;;;5047480;28;20478;-55
2021/06/01 20:52:51;;;;;;;8.57;6.50;;;;;;;;;;5047942;28;20467;-56
2021/06/01 20:55:19;;;;;;;5.53;3.27;;;;;;;;;;5038724;28;20486;-55
2021/06/01 20:58:00;;;;;;;6.50;3.00;;;;;;;;;;5037160;28;20459;-54
2021/06/01 21:00:28;;;;;;;4.97;3.17;;;;;;;;;;5037790;28;20450;-60
2021/06/01 21:02:58;;;;;;;9.23;4.20;;;;;;;;;;5041753;28;20444;-56
2021/06/01 21:05:31;;;;;;;6.13;3.47;;;;;;;;;;5057354;28;20465;-54
2021/06/01 21:08:02;;;;;;;6.13;3.37;;;;;;;;;;5044411;28;20569;-59
2021/06/01 21:10:31;;;;;;;34.83;22.73;;;;;;;;;;5049599;28;20501;-59
2021/06/01 21:12:58;;;;;;;7.57;3.23;;;;;;;;;;5048144;28;20458;-60
2021/06/01 21:15:27;;;;;;;6.50;3.60;;;;;;;;;;5056382;28;20437;-53
2021/06/01 21:18:15;;;;;;;7.43;3.17;;;;;;;;;;5041875;28;20450;-54
2021/06/01 21:20:56;;;;;;;3.93;2.90;;;;;;;;;;5042008;28;20463;-54
2021/06/01 21:23:26;;;;;;;5.40;2.90;;;;;;;;;;5039809;28;20438;-50
2021/06/01 21:25:54;;;;;;;6.83;3.23;;;;;;;;;;5057096;28;20454;-60
2021/06/01 21:28:27;;;;;;;4.70;2.80;;;;;;;;;;5055047;28;20501;-58
2021/06/01 21:30:55;;;;;;;4.73;2.50;;;;;;;;;;5035783;28;20517;-60